Flight Track Log - Related Links

Times and Time Zones

All times are in EDT time to prevent confusion due to time zone crossing. See the TCF3452 flight status page for this flight to view local times or setup timezone preferences in your user account.

Time Position Orientation Groundspeed Altitude Reporting Facility
EDT Latitude Longitude Course Direction KTS MPH feet Rate Location/Type
Tue 02:46:41 PM 35.8536 -78.8286 226° Southwest 158 182 2,600  Level Washington Center
Tue 02:47:42 PM 35.8106 -78.8781 223° Southwest 232 267 5,400 2,705 Climbing Washington Center
Tue 02:48:43 PM 35.8022 -78.9519 262° West 280 322 8,100 2,727 Climbing Washington Center
Tue 02:49:00 PM 36.2354 -78.6396 19° North  Level FlightAware Approximate
Tue 02:49:10 PM 35.8328 -78.9764 327° Northwest 342 394 9,400  Level Washington Center
Tue 02:50:00 PM 36.3291 -78.6070 15° North  Level FlightAware Approximate
Tue 02:50:08 PM 35.9200 -78.9878 354° North 339 390 11,900  Level Washington Center
Tue 02:51:00 PM 36.4238 -78.5798 22° Northeast  Level FlightAware Approximate
Tue 02:51:09 PM 35.9847 -78.9136 43° Northeast 287 330 12,000  Level Washington Center
Tue 02:52:10 PM 36.0414 -78.8314 50° Northeast 287 330 12,900 1,700 Climbing Washington Center
Tue 02:53:09 PM 36.1042 -78.7464 48° Northeast 307 353 15,400 2,250 Climbing Washington Center
Tue 02:54:10 PM 36.1669 -78.6536 50° Northeast 334 384 17,400 1,815 Climbing Washington Center
Tue 02:55:08 PM 36.2361 -78.5586 48° Northeast 355 409 19,000 807 Climbing Washington Center
Tue 02:56:09 PM 36.3008 -78.4683 48° Northeast 361 415 19,000  Level Washington Center
Tue 02:57:09 PM 36.3781 -78.3886 40° Northeast 355 409 19,000  Level Washington Center
Tue 02:58:10 PM 36.4731 -78.3428 21° North 356 410 19,000  Level Washington Center
Tue 02:59:08 PM 36.5700 -78.2972 21° North 356 410 19,000  Level Washington Center
Tue 03:00:09 PM 36.6669 -78.2486 22° Northeast 362 417 19,000  Level Washington Center
Tue 03:01:10 PM 36.7556 -78.2050 22° Northeast 362 417 19,000  Level Washington Center
Tue 03:02:08 PM 36.8631 -78.1542 21° North 386 444 19,000  Level Washington Center
Tue 03:03:09 PM 36.9503 -78.0714 37° Northeast 394 453 19,000  Level Washington Center
Tue 03:04:10 PM 37.0233 -77.9669 49° Northeast 389 448 19,000  Level Washington Center
Tue 03:05:10 PM 37.0983 -77.8678 47° Northeast 389 448 19,000  Level Washington Center
Tue 03:06:08 PM 37.1753 -77.7658 47° Northeast 394 453 19,000  Level Washington Center
Tue 03:07:08 PM 37.2503 -77.6636 47° Northeast 394 453 19,000  Level Washington Center
Tue 03:08:10 PM 37.3250 -77.5611 47° Northeast 389 448 19,000  Level Washington Center
Tue 03:09:08 PM 37.3994 -77.4583 48° Northeast 389 448 19,000  Level Washington Center
Tue 03:10:08 PM 37.4678 -77.3686 46° Northeast 373 429 19,000 -246 Level Washington Center
Tue 03:11:10 PM 37.5539 -77.3181 25° Northeast 341 392 18,500 -738 Descending Washington Center
Tue 03:12:10 PM 37.6539 -77.3256 357° North 328 377 17,500 -763 Descending Washington Center
Tue 03:13:08 PM 37.7497 -77.3278 359° North 333 383 17,000 -353 Descending Washington Center
Tue 03:14:09 PM 37.8458 -77.3328 358° North 338 389 16,800 -590 Descending Washington Center
Tue 03:15:10 PM 37.9394 -77.3375 358° North 343 395 15,800 -992 Descending Washington Center
Tue 03:16:10 PM 38.0311 -77.3394 359° North 343 395 14,800 -1,261 Descending Washington Center
Tue 03:17:09 PM 38.1208 -77.3469 356° North 327 376 13,300 -1,500 Descending Washington Center
Tue 03:18:10 PM 38.2125 -77.3517 358° North 327 376 11,800 -1,488 Descending Washington Center
Tue 03:19:10 PM 38.3000 -77.3564 358° North 327 376 10,300 -864 Descending Washington Center
Tue 03:20:08 PM 38.3856 -77.3583 359° North 322 371 10,100 -706 Descending Washington Center
Tue 03:21:09 PM 38.4708 -77.3631 358° North 312 359 8,900 -2,016 Descending Washington Center
Tue 03:22:10 PM 38.5542 -77.3650 359° North 305 351 6,000 -2,108 Descending Washington Center
Tue 03:23:00 PM 38.6333 -77.3667 359° North 289 333 5,000 -919 Descending Potomac TRACON
Tue 03:24:01 PM 38.7167 -77.3667 360° North 281 323 4,300 -545 Descending Potomac TRACON
Tue 03:25:01 PM 38.8000 -77.3500 North 278 320 3,900 -150 Descending Potomac TRACON
Tue 03:26:01 PM 38.8667 -77.3500 360° North 260 299 4,000 50 Climbing Potomac TRACON
Tue 03:27:01 PM 38.9333 -77.3500 360° North 260 299 4,000  Level Potomac TRACON
Tue 03:28:07 PM 39.0167 -77.3500 360° North 260 299 4,000 -381 Level Potomac TRACON
Tue 03:29:07 PM 39.0833 -77.3500 360° North 258 297 3,200 -650 Descending Potomac TRACON
Tue 03:30:07 PM 39.1667 -77.3500 360° North 248 285 2,700 -381 Descending Potomac TRACON
Tue 03:31:13 PM 39.2000 -77.4000 311° West 251 289 2,400 -333 Descending Potomac TRACON
Tue 03:32:13 PM 39.1667 -77.4333 218° Southwest 189 217 2,000 -200 Descending Potomac TRACON
Tue 03:33:13 PM 39.1167 -77.4333 180° South 183 211 2,000  Level Potomac TRACON

Login

Don't have an account? Register now (free) for customized features, flight alerts, and more!